createdAt,value
2023-04-18T00:00:04.691Z,41.88
2023-04-18T00:01:04.760Z,43.68
2023-04-18T00:02:04.803Z,41.35
2023-04-18T00:03:05.119Z,42.62
2023-04-18T00:04:04.851Z,42.57
2023-04-18T00:05:04.789Z,42.60
2023-04-18T00:06:05.787Z,41.40
2023-04-18T00:07:05.813Z,40.38
2023-04-18T00:08:05.811Z,39.84
2023-04-18T00:09:05.830Z,40.38
2023-04-18T00:10:05.850Z,39.51
2023-04-18T00:11:05.831Z,40.29
2023-04-18T00:12:05.862Z,41.73
2023-04-18T00:13:05.866Z,40.54
2023-04-18T00:14:05.891Z,39.75
2023-04-18T00:15:05.932Z,38.08
2023-04-18T00:16:05.934Z,41.59
2023-04-18T00:17:04.994Z,41.27
2023-04-18T00:18:06.155Z,39.13
2023-04-18T00:19:04.970Z,40.23
2023-04-18T00:20:05.983Z,40.09
2023-04-18T00:21:05.988Z,42.22
2023-04-18T00:22:06.064Z,38.65
2023-04-18T00:23:06.044Z,39.64
2023-04-18T00:24:06.050Z,42.66
2023-04-18T00:25:06.054Z,38.25
2023-04-18T00:26:06.097Z,40.69
2023-04-18T00:27:05.109Z,40.13
2023-04-18T00:28:06.142Z,39.34
2023-04-18T00:29:06.129Z,41.46
2023-04-18T00:30:06.145Z,40.71
2023-04-18T00:31:05.177Z,41.51
2023-04-18T00:32:05.211Z,41.15
2023-04-18T00:33:06.279Z,38.54
2023-04-18T00:34:05.210Z,38.74
2023-04-18T00:35:06.300Z,35.33
2023-04-18T00:36:06.271Z,39.25
2023-04-18T00:37:05.297Z,37.72
2023-04-18T00:38:06.318Z,39.19
2023-04-18T00:39:06.346Z,36.70
2023-04-18T00:40:06.368Z,39.91
2023-04-18T00:41:05.434Z,39.82
2023-04-18T00:42:05.495Z,39.15
2023-04-18T00:43:06.456Z,35.72
2023-04-18T00:44:06.485Z,36.17
2023-04-18T00:45:05.536Z,37.40
2023-04-18T00:46:05.597Z,37.99
2023-04-18T00:47:05.611Z,41.45
2023-04-18T00:48:06.659Z,37.17
2023-04-18T00:49:06.597Z,37.94
2023-04-18T00:50:06.626Z,38.94
2023-04-18T00:51:06.635Z,35.48
2023-04-18T00:52:06.899Z,37.08
2023-04-18T00:53:06.686Z,37.79
2023-04-18T00:54:05.706Z,37.43
2023-04-18T00:55:06.744Z,36.71
2023-04-18T00:56:05.767Z,33.82
2023-04-18T00:57:05.775Z,36.60
2023-04-18T00:58:06.860Z,38.31
2023-04-18T00:59:05.825Z,36.92
2023-04-18T01:00:05.829Z,37.31
2023-04-18T01:01:06.902Z,37.71
2023-04-18T01:02:06.982Z,37.78
2023-04-18T01:03:07.067Z,36.23
2023-04-18T01:04:06.962Z,39.33
2023-04-18T01:05:06.948Z,32.38
2023-04-18T01:06:05.972Z,37.01
2023-04-18T01:07:06.021Z,34.39
2023-04-18T01:08:07.016Z,37.65
2023-04-18T01:09:06.033Z,36.22
2023-04-18T01:10:07.057Z,33.50
2023-04-18T01:11:07.089Z,37.25
2023-04-18T01:12:07.108Z,37.79
2023-04-18T01:13:07.141Z,34.66
2023-04-18T01:14:06.315Z,37.46
2023-04-18T01:15:07.158Z,36.18
2023-04-18T01:16:06.210Z,35.10
2023-04-18T01:17:07.211Z,35.01
2023-04-18T01:18:06.252Z,34.59
2023-04-18T01:19:06.288Z,34.90
2023-04-18T01:20:07.289Z,34.70
2023-04-18T01:21:07.300Z,36.24
2023-04-18T01:22:06.334Z,33.16
2023-04-18T01:23:06.387Z,35.39
2023-04-18T01:24:07.432Z,36.15
2023-04-18T01:25:07.474Z,36.26
2023-04-18T01:26:07.461Z,35.38
2023-04-18T01:27:07.487Z,34.52
2023-04-18T01:28:07.530Z,36.50
2023-04-18T01:29:06.549Z,33.34
2023-04-18T01:30:07.595Z,35.13
2023-04-18T01:31:06.661Z,36.50
2023-04-18T01:32:06.615Z,36.74
2023-04-18T01:33:06.727Z,35.56
2023-04-18T01:34:07.735Z,33.23
2023-04-18T01:35:06.696Z,36.19
2023-04-18T01:36:07.717Z,34.43
2023-04-18T01:37:07.756Z,32.65
2023-04-18T01:38:07.805Z,31.94
2023-04-18T01:39:07.802Z,34.15
2023-04-18T01:40:06.808Z,31.04
2023-04-18T01:41:07.846Z,32.23
2023-04-18T01:42:07.946Z,32.69
2023-04-18T01:43:07.949Z,31.68
2023-04-18T01:44:06.910Z,31.35
2023-04-18T01:45:06.936Z,30.04
2023-04-18T01:46:07.119Z,31.80
2023-04-18T01:47:06.966Z,28.61
2023-04-18T01:48:06.994Z,31.55
2023-04-18T01:49:08.010Z,30.21
2023-04-18T01:50:08.007Z,31.87
2023-04-18T01:51:07.992Z,29.42
2023-04-18T01:52:07.991Z,26.04
2023-04-18T01:53:08.029Z,28.02
2023-04-18T01:54:08.034Z,27.67
2023-04-18T01:55:08.043Z,30.00
2023-04-18T01:56:07.009Z,28.70
2023-04-18T01:57:06.993Z,28.37
2023-04-18T01:58:08.006Z,30.56
2023-04-18T01:59:07.012Z,28.15
2023-04-18T02:00:07.017Z,31.23
2023-04-18T02:01:08.062Z,29.43
2023-04-18T02:02:08.189Z,29.40
2023-04-18T02:03:08.255Z,28.35
2023-04-18T02:04:07.284Z,28.67
2023-04-18T02:05:07.208Z,31.62
2023-04-18T02:06:08.260Z,28.84
2023-04-18T02:07:07.323Z,28.94
2023-04-18T02:08:08.426Z,27.20
2023-04-18T02:09:08.453Z,29.07
2023-04-18T02:10:08.529Z,27.65
2023-04-18T02:11:08.592Z,28.69
2023-04-18T02:12:07.652Z,29.37
2023-04-18T02:13:08.685Z,28.61
2023-04-18T02:14:08.726Z,27.25
2023-04-18T02:15:08.785Z,29.99
2023-04-18T02:16:08.862Z,27.58
2023-04-18T02:17:07.937Z,28.00
2023-04-18T02:18:08.988Z,27.07
2023-04-18T02:19:08.998Z,25.91
2023-04-18T02:20:09.055Z,28.70
2023-04-18T02:21:09.112Z,26.89
2023-04-18T02:22:08.173Z,29.84
2023-04-18T02:23:09.244Z,28.07
2023-04-18T02:24:08.282Z,30.03
2023-04-18T02:25:09.328Z,26.60
2023-04-18T02:26:09.370Z,31.16
2023-04-18T02:27:09.428Z,31.51
2023-04-18T02:28:08.472Z,30.40
2023-04-18T02:29:09.531Z,25.79
2023-04-18T02:30:09.625Z,30.48
2023-04-18T02:31:08.621Z,30.68
2023-04-18T02:32:08.763Z,28.73
2023-04-18T02:33:09.735Z,30.84
2023-04-18T02:34:08.812Z,25.97
2023-04-18T02:35:09.835Z,30.81
2023-04-18T02:36:09.853Z,28.83
2023-04-18T02:37:08.927Z,30.98
2023-04-18T02:38:10.006Z,29.66
2023-04-18T02:39:09.011Z,29.64
2023-04-18T02:40:09.072Z,30.55
2023-04-18T02:41:10.111Z,30.21
2023-04-18T02:42:09.148Z,28.73
2023-04-18T02:43:10.204Z,29.33
2023-04-18T02:44:10.249Z,31.91
2023-04-18T02:45:10.287Z,31.49
2023-04-18T02:46:10.407Z,31.05
2023-04-18T02:47:10.384Z,31.29
2023-04-18T02:48:10.428Z,29.26
2023-04-18T02:49:10.578Z,26.16
2023-04-18T02:50:10.521Z,28.09
2023-04-18T02:51:10.498Z,26.24
2023-04-18T02:52:10.558Z,32.00
2023-04-18T02:53:11.496Z,31.11
2023-04-18T02:54:10.613Z,27.24
2023-04-18T02:55:10.666Z,26.86
2023-04-18T02:56:09.687Z,30.29
2023-04-18T02:57:09.716Z,33.13
2023-04-18T02:58:10.739Z,28.78
2023-04-18T02:59:10.752Z,27.88
2023-04-18T03:00:10.775Z,27.31
2023-04-18T03:01:10.889Z,28.96
2023-04-18T03:02:10.861Z,28.86
2023-04-18T03:03:09.919Z,27.50
2023-04-18T03:04:09.937Z,27.06
2023-04-18T03:05:10.961Z,28.06
2023-04-18T03:06:10.992Z,28.19
2023-04-18T03:07:10.992Z,28.22
2023-04-18T03:08:10.012Z,25.63
2023-04-18T03:09:11.047Z,30.11
2023-04-18T03:10:10.067Z,25.06
2023-04-18T03:11:11.116Z,28.76
2023-04-18T03:12:11.115Z,26.11
2023-04-18T03:13:10.182Z,26.05
2023-04-18T03:14:11.534Z,30.21
2023-04-18T03:15:11.223Z,27.19
2023-04-18T03:16:10.333Z,29.85
2023-04-18T03:17:11.257Z,26.71
2023-04-18T03:18:10.295Z,29.22
2023-04-18T03:19:11.370Z,29.37
2023-04-18T03:20:11.365Z,28.80
2023-04-18T03:21:11.427Z,27.21
2023-04-18T03:22:11.418Z,27.88
2023-04-18T03:23:11.449Z,33.15
2023-04-18T03:24:12.361Z,26.99
2023-04-18T03:25:11.529Z,26.67
2023-04-18T03:26:11.524Z,28.36
2023-04-18T03:27:11.569Z,29.23
2023-04-18T03:28:10.561Z,27.30
2023-04-18T03:29:11.599Z,31.56
2023-04-18T03:30:11.645Z,29.19
2023-04-18T03:31:11.681Z,27.17
2023-04-18T03:32:10.657Z,29.73
2023-04-18T03:33:11.723Z,29.00
2023-04-18T03:34:11.941Z,28.11
2023-04-18T03:35:10.759Z,26.27
2023-04-18T03:36:11.792Z,29.17
2023-04-18T03:37:10.792Z,28.88
2023-04-18T03:38:11.837Z,28.37
2023-04-18T03:39:11.877Z,28.21
2023-04-18T03:40:11.853Z,26.09
2023-04-18T03:41:10.895Z,27.89
2023-04-18T03:42:10.901Z,27.91
2023-04-18T03:43:11.926Z,25.93
2023-04-18T03:44:11.097Z,28.02
2023-04-18T03:45:10.967Z,29.92
2023-04-18T03:46:12.005Z,28.48
2023-04-18T03:47:11.017Z,29.00
2023-04-18T03:48:11.066Z,28.49
2023-04-18T03:49:11.083Z,28.43
2023-04-18T03:50:12.058Z,27.52
2023-04-18T03:51:12.090Z,26.48
2023-04-18T03:52:12.118Z,29.48
2023-04-18T03:53:12.118Z,28.46
2023-04-18T03:54:11.336Z,29.22
2023-04-18T03:55:11.169Z,28.58
2023-04-18T03:56:12.174Z,32.38
2023-04-18T03:57:12.187Z,27.94
2023-04-18T03:58:12.228Z,28.31
2023-04-18T03:59:12.233Z,28.98
2023-04-18T04:00:12.222Z,30.91
2023-04-18T04:01:12.264Z,27.36
2023-04-18T04:02:12.309Z,26.75
2023-04-18T04:03:12.429Z,30.57
2023-04-18T04:04:11.401Z,27.39
2023-04-18T04:05:11.322Z,31.55
2023-04-18T04:06:12.327Z,30.29
2023-04-18T04:07:12.326Z,26.97
2023-04-18T04:08:12.335Z,27.41
2023-04-18T04:09:12.356Z,28.74
2023-04-18T04:10:11.427Z,31.67
2023-04-18T04:11:12.428Z,26.87
2023-04-18T04:12:12.444Z,27.75
2023-04-18T04:13:12.466Z,27.50
2023-04-18T04:14:12.775Z,28.99
2023-04-18T04:15:12.514Z,25.95
2023-04-18T04:16:12.573Z,28.44
2023-04-18T04:17:11.549Z,27.57
2023-04-18T04:18:11.571Z,29.85
2023-04-18T04:19:12.613Z,27.96
2023-04-18T04:20:11.623Z,30.11
2023-04-18T04:21:12.645Z,27.84
2023-04-18T04:22:12.682Z,28.43
2023-04-18T04:23:11.713Z,29.43
2023-04-18T04:24:12.983Z,29.23
2023-04-18T04:25:11.786Z,26.73
2023-04-18T04:26:12.836Z,26.06
2023-04-18T04:27:12.832Z,29.21
2023-04-18T04:28:12.844Z,26.66
2023-04-18T04:29:12.880Z,28.32
2023-04-18T04:30:13.417Z,29.92
2023-04-18T04:31:11.947Z,26.61
2023-04-18T04:32:13.121Z,28.57
2023-04-18T04:33:12.996Z,28.15
2023-04-18T04:34:13.244Z,27.99
2023-04-18T04:35:12.084Z,27.16
2023-04-18T04:36:13.108Z,27.66
2023-04-18T04:37:12.152Z,29.20
2023-04-18T04:38:13.161Z,28.46
2023-04-18T04:39:13.181Z,27.11
2023-04-18T04:40:13.211Z,28.35
2023-04-18T04:41:13.208Z,28.24
2023-04-18T04:42:13.296Z,27.30
2023-04-18T04:43:12.268Z,29.03
2023-04-18T04:44:13.642Z,27.26
2023-04-18T04:45:12.328Z,27.12
2023-04-18T04:46:12.385Z,28.52
2023-04-18T04:47:13.382Z,28.23
2023-04-18T04:48:13.393Z,27.25
2023-04-18T04:49:12.470Z,25.70
2023-04-18T04:50:12.493Z,29.41
2023-04-18T04:51:12.485Z,30.50
2023-04-18T04:52:13.511Z,28.05
2023-04-18T04:53:13.532Z,28.20
2023-04-18T04:54:14.053Z,28.43
2023-04-18T04:55:13.691Z,28.53
2023-04-18T04:56:13.645Z,27.57
2023-04-18T04:57:13.708Z,30.45
2023-04-18T04:58:13.692Z,29.06
2023-04-18T04:59:13.690Z,29.80
2023-04-18T05:00:13.724Z,31.13
2023-04-18T05:01:13.861Z,26.79
2023-04-18T05:02:13.828Z,27.79
2023-04-18T05:03:14.004Z,30.39
2023-04-18T05:04:13.103Z,27.08
2023-04-18T05:05:13.821Z,29.23
2023-04-18T05:06:13.819Z,30.71
2023-04-18T05:07:12.861Z,30.47
2023-04-18T05:08:12.878Z,26.44
2023-04-18T05:09:12.922Z,30.34
2023-04-18T05:10:12.906Z,29.15
2023-04-18T05:11:12.928Z,30.05
2023-04-18T05:12:12.957Z,28.25
2023-04-18T05:13:12.987Z,29.81
2023-04-18T05:14:13.367Z,28.90
2023-04-18T05:15:14.014Z,32.81
2023-04-18T05:16:13.033Z,29.85
2023-04-18T05:17:14.027Z,27.63
2023-04-18T05:18:14.028Z,27.96
2023-04-18T05:19:14.099Z,30.06
2023-04-18T05:20:14.109Z,29.49
2023-04-18T05:21:13.096Z,30.93
2023-04-18T05:22:14.127Z,29.46
2023-04-18T05:23:14.161Z,28.13
2023-04-18T05:24:14.496Z,28.42
2023-04-18T05:25:13.193Z,26.93
2023-04-18T05:26:14.250Z,26.83
2023-04-18T05:27:13.226Z,26.61
2023-04-18T05:28:14.284Z,25.96
2023-04-18T05:29:13.473Z,27.99
2023-04-18T05:30:13.320Z,29.03
2023-04-18T05:31:14.388Z,29.75
2023-04-18T05:32:13.401Z,28.37
2023-04-18T05:33:14.415Z,25.54
2023-04-18T05:34:14.679Z,29.82
2023-04-18T05:35:14.427Z,33.17
2023-04-18T05:36:14.440Z,34.47
2023-04-18T05:37:14.430Z,32.07
2023-04-18T05:38:14.400Z,35.36
2023-04-18T05:39:13.415Z,33.97
2023-04-18T05:40:13.431Z,34.10
2023-04-18T05:41:13.525Z,27.54
2023-04-18T05:42:14.487Z,22.78
2023-04-18T05:43:14.581Z,26.69
2023-04-18T05:44:14.602Z,26.25
2023-04-18T05:45:14.555Z,28.39
2023-04-18T05:46:13.648Z,25.82
2023-04-18T05:47:14.549Z,28.91
2023-04-18T05:48:13.688Z,29.78
2023-04-18T05:49:13.770Z,28.60
2023-04-18T05:50:14.864Z,30.94
2023-04-18T05:51:14.909Z,31.36
2023-04-18T05:52:14.952Z,36.33
2023-04-18T05:53:17.827Z,25.82
2023-04-18T05:54:15.069Z,25.89
2023-04-18T05:55:15.361Z,27.00
2023-04-18T05:56:15.121Z,28.68
2023-04-18T05:57:13.944Z,28.41
2023-04-18T05:58:14.933Z,30.61
2023-04-18T05:59:13.993Z,31.53
2023-04-18T06:00:14.950Z,45.28
2023-04-18T06:01:14.901Z,60.18
2023-04-18T06:02:15.024Z,57.97
2023-04-18T06:03:14.006Z,56.04
2023-04-18T06:04:14.289Z,69.13
2023-04-18T06:05:15.049Z,65.10
2023-04-18T06:06:13.863Z,72.13
2023-04-18T06:07:14.864Z,126.08
2023-04-18T06:08:13.870Z,165.20
2023-04-18T06:09:13.859Z,141.00
2023-04-18T06:10:13.847Z,133.63
2023-04-18T06:11:14.867Z,133.02
2023-04-18T06:12:13.870Z,129.52
2023-04-18T06:13:14.827Z,120.26
2023-04-18T06:14:15.187Z,125.51
2023-04-18T06:15:15.009Z,124.85
2023-04-18T06:16:14.866Z,120.25
2023-04-18T06:17:13.832Z,119.35
2023-04-18T06:18:14.811Z,120.59
2023-04-18T06:19:13.795Z,125.04
2023-04-18T06:20:14.812Z,125.57
2023-04-18T06:21:14.829Z,125.14
2023-04-18T06:22:14.869Z,132.01
2023-04-18T06:23:14.939Z,129.58
2023-04-18T06:24:15.335Z,138.97
2023-04-18T06:25:13.974Z,146.13
2023-04-18T06:26:15.069Z,147.85
2023-04-18T06:27:24.406Z,147.50
2023-04-18T06:28:14.994Z,148.12
2023-04-18T06:29:14.979Z,149.16
2023-04-18T06:30:15.021Z,150.36
2023-04-18T06:31:15.043Z,152.18
2023-04-18T06:32:13.964Z,153.28
2023-04-18T06:33:13.939Z,157.93
2023-04-18T06:34:15.454Z,159.91
2023-04-18T06:35:14.945Z,166.12
2023-04-18T06:36:13.947Z,169.71
2023-04-18T06:37:14.950Z,168.80
2023-04-18T06:38:14.946Z,164.78
2023-04-18T06:39:14.024Z,166.45
2023-04-18T06:40:13.936Z,172.41
2023-04-18T06:41:14.909Z,169.98
2023-04-18T06:42:14.909Z,174.06
2023-04-18T06:43:13.967Z,174.02
2023-04-18T06:44:15.015Z,178.36
2023-04-18T06:45:14.886Z,180.08
2023-04-18T06:46:14.926Z,179.69
2023-04-18T06:47:14.865Z,176.56
2023-04-18T06:48:14.873Z,180.94
2023-04-18T06:49:15.014Z,190.83
2023-04-18T06:50:15.010Z,196.44
2023-04-18T06:51:15.109Z,195.38
2023-04-18T06:52:14.122Z,196.79
2023-04-18T06:53:15.083Z,229.67
2023-04-18T06:54:15.257Z,199.88
2023-04-18T06:55:15.218Z,203.52
2023-04-18T06:56:14.592Z,199.53
2023-04-18T06:57:15.269Z,194.45
2023-04-18T06:58:15.390Z,189.58
2023-04-18T06:59:15.404Z,187.61
2023-04-18T07:00:14.422Z,182.65
2023-04-18T07:01:15.577Z,179.86
2023-04-18T07:02:14.580Z,178.28
2023-04-18T07:03:15.734Z,178.46
2023-04-18T07:04:14.872Z,178.44
2023-04-18T07:05:15.561Z,179.55
2023-04-18T07:06:15.598Z,176.05
2023-04-18T07:07:14.567Z,176.78
2023-04-18T07:08:14.549Z,176.12
2023-04-18T07:09:15.559Z,176.97
2023-04-18T07:10:15.594Z,173.82
2023-04-18T07:11:15.627Z,175.17
2023-04-18T07:12:14.654Z,171.63
2023-04-18T07:13:15.624Z,173.84
2023-04-18T07:14:15.848Z,172.75
2023-04-18T07:15:15.662Z,172.75
2023-04-18T07:16:15.856Z,172.21
2023-04-18T07:17:15.831Z,171.94
2023-04-18T07:18:23.276Z,170.18
2023-04-18T07:19:15.721Z,170.42
2023-04-18T07:20:15.745Z,170.63
2023-04-18T07:21:15.811Z,170.92
2023-04-18T07:22:14.751Z,170.78
2023-04-18T07:23:15.699Z,168.98
2023-04-18T07:24:15.994Z,169.84
2023-04-18T07:25:15.746Z,166.16
2023-04-18T07:26:15.778Z,167.24
2023-04-18T07:27:15.675Z,167.70
2023-04-18T07:28:14.653Z,167.83
2023-04-18T07:29:15.700Z,166.99
2023-04-18T07:30:15.656Z,165.64
2023-04-18T07:31:15.682Z,166.39
2023-04-18T07:32:14.659Z,165.69
2023-04-18T07:33:15.632Z,162.17
2023-04-18T07:34:15.894Z,163.05
2023-04-18T07:35:15.634Z,161.35
2023-04-18T07:36:16.274Z,162.40
2023-04-18T07:37:15.624Z,160.56
2023-04-18T07:38:15.677Z,161.23
2023-04-18T07:39:15.713Z,160.96
2023-04-18T07:40:14.732Z,157.30
2023-04-18T07:41:14.761Z,157.48
2023-04-18T07:42:15.719Z,160.77
2023-04-18T07:43:15.755Z,161.91
2023-04-18T07:44:16.005Z,157.11
2023-04-18T07:45:14.796Z,158.28
2023-04-18T07:46:16.015Z,157.23
2023-04-18T07:47:15.852Z,153.21
2023-04-18T07:48:15.941Z,157.78
2023-04-18T07:49:16.162Z,158.26
2023-04-18T07:50:16.007Z,158.75
2023-04-18T07:51:16.369Z,157.81
2023-04-18T07:52:15.019Z,153.30
2023-04-18T07:53:16.307Z,156.09
2023-04-18T07:54:15.262Z,155.42
2023-04-18T07:55:16.062Z,155.36
2023-04-18T07:56:16.087Z,155.19
2023-04-18T07:57:15.144Z,157.28
2023-04-18T07:58:16.112Z,153.53
2023-04-18T07:59:16.462Z,153.99
2023-04-18T08:00:16.155Z,154.87
2023-04-18T08:01:16.143Z,153.88
2023-04-18T08:02:16.306Z,150.67
2023-04-18T08:03:15.480Z,150.96
2023-04-18T08:04:15.320Z,151.72
2023-04-18T08:05:16.602Z,151.44
2023-04-18T08:06:15.213Z,149.87
2023-04-18T08:07:16.361Z,148.09
2023-04-18T08:08:16.260Z,149.48
2023-04-18T08:09:16.416Z,147.84
2023-04-18T08:10:15.518Z,148.62
2023-04-18T08:11:15.299Z,149.74
2023-04-18T08:12:15.376Z,149.67
2023-04-18T08:13:16.336Z,146.28
2023-04-18T08:14:15.367Z,148.91
2023-04-18T08:15:16.528Z,146.74
2023-04-18T08:16:17.480Z,147.39
2023-04-18T08:17:16.400Z,146.08
2023-04-18T08:18:16.455Z,146.01
2023-04-18T08:19:15.713Z,142.96
2023-04-18T08:20:15.517Z,146.32
2023-04-18T08:21:16.477Z,143.75
2023-04-18T08:22:15.576Z,142.30
2023-04-18T08:23:15.478Z,144.71
2023-04-18T08:24:16.572Z,141.05
2023-04-18T08:25:15.520Z,144.74
2023-04-18T08:26:15.617Z,146.80
2023-04-18T08:27:17.768Z,141.99
2023-04-18T08:28:16.791Z,143.66
2023-04-18T08:29:16.645Z,141.46
2023-04-18T08:30:16.617Z,140.58
2023-04-18T08:31:15.677Z,143.36
2023-04-18T08:32:16.617Z,141.16
2023-04-18T08:33:16.652Z,142.73
2023-04-18T08:34:16.712Z,138.68
2023-04-18T08:35:16.742Z,139.70
2023-04-18T08:36:16.701Z,138.06
2023-04-18T08:37:16.716Z,141.75
2023-04-18T08:38:16.720Z,140.91
2023-04-18T08:39:15.950Z,137.50
2023-04-18T08:40:16.805Z,137.30
2023-04-18T08:41:16.146Z,139.09
2023-04-18T08:42:16.907Z,137.07
2023-04-18T08:43:16.802Z,138.20
2023-04-18T08:44:16.829Z,288.44
2023-04-18T08:45:16.035Z,174.21
2023-04-18T08:46:15.981Z,159.23
2023-04-18T08:47:15.985Z,147.67
2023-04-18T08:48:17.005Z,139.75
2023-04-18T08:49:17.328Z,134.62
2023-04-18T08:50:17.048Z,138.14
2023-04-18T08:51:17.077Z,138.77
2023-04-18T08:52:17.081Z,139.71
2023-04-18T08:53:17.077Z,141.57
2023-04-18T08:54:17.317Z,146.72
2023-04-18T08:55:17.221Z,146.17
2023-04-18T08:56:17.138Z,149.72
2023-04-18T08:57:17.090Z,152.18
2023-04-18T08:58:17.186Z,154.40
2023-04-18T08:59:16.412Z,155.43
2023-04-18T09:00:17.283Z,153.00
2023-04-18T09:01:17.394Z,153.29
2023-04-18T09:02:17.467Z,154.40
2023-04-18T09:03:17.584Z,156.79
2023-04-18T09:04:17.625Z,157.00
2023-04-18T09:05:16.616Z,157.13
2023-04-18T09:06:16.667Z,156.34
2023-04-18T09:07:17.697Z,153.32
2023-04-18T09:08:17.749Z,154.63
2023-04-18T09:09:16.777Z,153.55
2023-04-18T09:10:17.795Z,151.91
2023-04-18T09:11:16.826Z,156.58
2023-04-18T09:12:17.842Z,153.59
2023-04-18T09:13:17.867Z,154.27
2023-04-18T09:14:18.097Z,153.47
2023-04-18T09:15:16.965Z,155.45
2023-04-18T09:16:17.072Z,155.96
2023-04-18T09:17:17.053Z,154.28
2023-04-18T09:18:18.082Z,154.63
2023-04-18T09:19:18.424Z,155.35
2023-04-18T09:20:18.146Z,151.88
2023-04-18T09:21:18.271Z,151.49
2023-04-18T09:22:18.218Z,153.79
2023-04-18T09:23:17.289Z,153.05
2023-04-18T09:24:18.311Z,152.58
2023-04-18T09:25:17.343Z,154.44
2023-04-18T09:26:17.420Z,153.97
2023-04-18T09:27:18.450Z,153.18
2023-04-18T09:28:18.538Z,153.03
2023-04-18T09:29:18.662Z,152.00
2023-04-18T09:30:18.662Z,153.17
2023-04-18T09:31:18.727Z,154.27
2023-04-18T09:32:18.771Z,153.94
2023-04-18T09:33:17.782Z,153.24
2023-04-18T09:34:18.835Z,151.95
2023-04-18T09:35:18.912Z,151.46
2023-04-18T09:36:17.972Z,152.94
2023-04-18T09:37:18.029Z,151.59
2023-04-18T09:38:19.127Z,152.65
2023-04-18T09:39:18.302Z,152.62
2023-04-18T09:40:19.235Z,151.74
2023-04-18T09:41:21.491Z,149.70
2023-04-18T09:42:18.298Z,153.26
2023-04-18T09:43:19.289Z,149.96
2023-04-18T09:44:18.606Z,152.93
2023-04-18T09:45:19.289Z,150.62
2023-04-18T09:46:18.647Z,150.17
2023-04-18T09:47:18.662Z,150.30
2023-04-18T09:48:19.286Z,151.57
2023-04-18T09:49:18.568Z,154.43
2023-04-18T09:50:19.237Z,151.94
2023-04-18T09:51:19.227Z,150.11
2023-04-18T09:52:18.694Z,177.33
2023-04-18T09:53:20.569Z,229.01
2023-04-18T09:54:18.421Z,214.76
2023-04-18T09:55:19.476Z,203.24
2023-04-18T09:56:18.515Z,199.47
2023-04-18T09:57:18.644Z,193.23
2023-04-18T09:58:18.643Z,197.08
2023-04-18T09:59:21.111Z,196.24
2023-04-18T10:00:18.821Z,196.28
2023-04-18T10:01:20.012Z,206.49
2023-04-18T10:02:20.200Z,208.85
2023-04-18T10:03:20.168Z,208.16
2023-04-18T10:04:19.033Z,207.36
2023-04-18T10:05:21.235Z,207.32
2023-04-18T10:06:20.047Z,207.84
2023-04-18T10:07:19.062Z,209.50
2023-04-18T10:08:20.133Z,208.90
2023-04-18T10:09:19.131Z,210.22
2023-04-18T10:10:20.170Z,210.40
2023-04-18T10:11:20.368Z,223.61
2023-04-18T10:12:20.270Z,230.94
2023-04-18T10:13:19.225Z,233.57
2023-04-18T10:14:19.242Z,241.69
2023-04-18T10:15:19.274Z,247.00
2023-04-18T10:16:20.499Z,247.40
2023-04-18T10:17:20.461Z,249.67
2023-04-18T10:18:20.422Z,248.77
2023-04-18T10:19:20.438Z,248.02
2023-04-18T10:20:19.345Z,245.09
2023-04-18T10:21:21.418Z,241.95
2023-04-18T10:22:20.318Z,240.87
2023-04-18T10:23:20.526Z,242.09
2023-04-18T10:24:19.306Z,245.17
2023-04-18T10:25:20.336Z,242.40
2023-04-18T10:26:20.301Z,244.62
2023-04-18T10:27:20.381Z,248.65
2023-04-18T10:28:20.387Z,250.00
2023-04-18T10:29:20.495Z,242.73
2023-04-18T10:30:20.399Z,241.22
2023-04-18T10:31:19.433Z,240.85
2023-04-18T10:32:20.463Z,241.97
2023-04-18T10:33:29.330Z,244.32
2023-04-18T10:34:20.826Z,244.50
2023-04-18T10:35:20.363Z,244.64
2023-04-18T10:36:20.366Z,245.06
2023-04-18T10:37:20.591Z,246.54
2023-04-18T10:38:20.392Z,246.13
2023-04-18T10:39:20.378Z,246.65
2023-04-18T10:40:19.450Z,248.18
2023-04-18T10:41:20.315Z,246.44
2023-04-18T10:42:19.664Z,243.12
2023-04-18T10:43:20.304Z,241.66
2023-04-18T10:44:19.292Z,239.75
2023-04-18T10:45:19.452Z,237.46
2023-04-18T10:46:31.048Z,237.15
2023-04-18T10:47:20.775Z,237.45
2023-04-18T10:48:19.328Z,237.43
2023-04-18T10:49:20.332Z,238.02
2023-04-18T10:50:20.276Z,238.40
2023-04-18T10:51:20.261Z,237.27
2023-04-18T10:52:19.266Z,236.75
2023-04-18T10:53:19.247Z,235.92
2023-04-18T10:54:20.331Z,236.13
2023-04-18T10:55:19.287Z,232.72
2023-04-18T10:56:20.233Z,233.69
2023-04-18T10:57:20.218Z,232.75
2023-04-18T10:58:20.205Z,232.80
2023-04-18T10:59:20.194Z,233.18
2023-04-18T11:00:20.308Z,229.02
2023-04-18T11:01:19.199Z,229.96
2023-04-18T11:02:20.314Z,229.14
2023-04-18T11:03:19.282Z,228.13
2023-04-18T11:04:19.473Z,227.46
2023-04-18T11:05:20.162Z,225.11
2023-04-18T11:06:19.232Z,227.08
2023-04-18T11:07:19.160Z,224.96
2023-04-18T11:08:19.134Z,226.55
2023-04-18T11:09:19.128Z,224.89
2023-04-18T11:10:19.150Z,226.29
2023-04-18T11:11:20.195Z,222.16
2023-04-18T11:12:20.259Z,223.92
2023-04-18T11:13:20.288Z,221.48
2023-04-18T11:14:20.326Z,222.80
2023-04-18T11:15:19.366Z,220.62
2023-04-18T11:16:20.426Z,221.42
2023-04-18T11:17:20.510Z,222.88
2023-04-18T11:18:20.535Z,218.02
2023-04-18T11:19:20.559Z,223.56
2023-04-18T11:20:20.659Z,220.66
2023-04-18T11:21:20.668Z,219.55
2023-04-18T11:22:19.829Z,218.36
2023-04-18T11:23:19.799Z,218.99
2023-04-18T11:24:20.876Z,218.30
2023-04-18T11:25:19.908Z,218.68
2023-04-18T11:26:19.958Z,217.55
2023-04-18T11:27:21.011Z,215.41
2023-04-18T11:28:20.057Z,215.87
2023-04-18T11:29:21.098Z,214.77
2023-04-18T11:30:21.147Z,214.83
2023-04-18T11:31:21.237Z,214.10
2023-04-18T11:32:21.464Z,213.46
2023-04-18T11:33:20.308Z,213.52
2023-04-18T11:34:21.337Z,209.08
2023-04-18T11:35:21.367Z,209.31
2023-04-18T11:36:21.437Z,211.65
2023-04-18T11:37:21.752Z,212.24
2023-04-18T11:38:23.890Z,211.51
2023-04-18T11:39:21.504Z,213.36
2023-04-18T11:40:21.497Z,212.25
2023-04-18T11:41:20.502Z,213.12
2023-04-18T11:42:20.718Z,210.13
2023-04-18T11:43:20.499Z,210.49
2023-04-18T11:44:21.475Z,207.36
2023-04-18T11:45:20.473Z,209.94
2023-04-18T11:46:20.501Z,205.09
2023-04-18T11:47:20.504Z,206.43
2023-04-18T11:48:21.456Z,207.95
2023-04-18T11:49:20.464Z,208.22
2023-04-18T11:50:21.451Z,205.75
2023-04-18T11:51:20.431Z,206.33
2023-04-18T11:52:21.439Z,205.68
2023-04-18T11:53:20.465Z,204.30
2023-04-18T11:54:20.452Z,205.22
2023-04-18T11:55:21.444Z,204.02
2023-04-18T11:56:20.384Z,204.72
2023-04-18T11:57:20.384Z,204.88
2023-04-18T11:58:20.368Z,201.45
2023-04-18T11:59:21.382Z,202.32
2023-04-18T12:00:20.369Z,201.26
2023-04-18T12:01:20.389Z,201.29
2023-04-18T12:02:20.587Z,201.18
2023-04-18T12:03:20.582Z,197.73
2023-04-18T12:04:21.132Z,198.47
2023-04-18T12:05:20.596Z,199.30
2023-04-18T12:06:21.499Z,199.43
2023-04-18T12:07:21.487Z,199.45
2023-04-18T12:08:20.528Z,195.94
2023-04-18T12:09:20.587Z,195.08
2023-04-18T12:10:20.617Z,196.17
2023-04-18T12:11:21.657Z,196.48
2023-04-18T12:12:21.711Z,195.22
2023-04-18T12:13:20.788Z,195.03
2023-04-18T12:14:20.806Z,193.93
2023-04-18T12:15:21.864Z,194.99
2023-04-18T12:16:20.979Z,191.87
2023-04-18T12:17:21.049Z,192.45
2023-04-18T12:18:22.050Z,191.38
2023-04-18T12:19:22.102Z,190.66
2023-04-18T12:20:21.150Z,181.91
2023-04-18T12:21:22.210Z,133.88
2023-04-18T12:22:21.736Z,110.42
2023-04-18T12:23:21.268Z,59.15
2023-04-18T12:24:22.291Z,92.57
2023-04-18T12:25:22.635Z,94.28
2023-04-18T12:26:21.294Z,111.30
2023-04-18T12:27:22.315Z,130.88
2023-04-18T12:28:21.288Z,132.44
2023-04-18T12:29:22.276Z,127.00
2023-04-18T12:30:22.269Z,123.54
2023-04-18T12:31:21.290Z,123.19
2023-04-18T12:32:21.385Z,128.94
2023-04-18T12:33:22.241Z,134.04
2023-04-18T12:34:21.246Z,133.14
2023-04-18T12:35:22.247Z,133.74
2023-04-18T12:36:22.233Z,129.79
2023-04-18T12:37:21.238Z,129.08
2023-04-18T12:38:22.213Z,130.76
2023-04-18T12:39:22.193Z,132.36
2023-04-18T12:40:21.290Z,129.45